Time;durP1;ratioP1;P1;durP2;ratioP2;P2;SDS_P1;SDS_P2;PMS_P1;PMS_P2;Temp;Humidity;BMP_temperature;BMP_pressure;BME280_temperature;BME280_humidity;BME280_pressure;Samples;Min_cycle;Max_cycle;Signal;HPM_P1;HPM_P2
2021/09/03 00:02:00;;;;;;;38.13;14.90;;;;;;;14.84;76.69;102588.47;5070456;28;20082;-46
2021/09/03 00:04:25;;;;;;;32.90;13.38;;;;;;;14.86;76.26;102585.88;5048615;28;20432;-49
2021/09/03 00:06:51;;;;;;;31.02;13.20;;;;;;;14.80;76.14;102586.63;5049763;28;20356;-49
2021/09/03 00:09:16;;;;;;;29.98;12.48;;;;;;;14.75;75.96;102579.50;5064502;28;20068;-50
2021/09/03 00:11:41;;;;;;;37.15;15.20;;;;;;;14.73;76.97;102581.19;5051729;28;20182;-52
2021/09/03 00:14:07;;;;;;;39.67;15.25;;;;;;;14.73;76.69;102573.31;5069872;28;20200;-49
2021/09/03 00:16:32;;;;;;;32.10;13.90;;;;;;;14.72;76.39;102575.06;5050785;28;20059;-48
2021/09/03 00:18:57;;;;;;;29.42;13.00;;;;;;;14.71;76.30;102575.00;5052083;28;20027;-52
2021/09/03 00:21:23;;;;;;;38.00;14.55;;;;;;;14.74;76.51;102575.09;5066404;28;20420;-47
2021/09/03 00:23:48;;;;;;;35.13;12.90;;;;;;;14.70;76.70;102568.88;5063060;28;20169;-51
2021/09/03 00:26:14;;;;;;;30.52;12.50;;;;;;;14.66;76.15;102572.28;5065323;28;20369;-51
2021/09/03 00:28:41;;;;;;;31.40;13.18;;;;;;;14.60;76.50;102565.16;5071358;28;20466;-51
2021/09/03 00:31:07;;;;;;;37.95;13.88;;;;;;;14.60;77.01;102559.91;5070373;28;20047;-51
2021/09/03 00:33:32;;;;;;;39.20;15.52;;;;;;;14.59;77.20;102567.75;5053316;28;20101;-47
2021/09/03 00:35:57;;;;;;;36.35;13.60;;;;;;;14.62;76.68;102565.22;5069778;28;20340;-50
2021/09/03 00:38:23;;;;;;;39.10;14.70;;;;;;;14.59;77.23;102565.13;5066397;28;20665;-51
2021/09/03 00:40:48;;;;;;;37.78;14.65;;;;;;;14.61;77.48;102560.81;5070456;28;20509;-51
2021/09/03 00:43:13;;;;;;;41.65;14.82;;;;;;;14.63;77.00;102561.75;5067443;28;20380;-47
2021/09/03 00:45:39;;;;;;;33.13;13.82;;;;;;;14.61;76.86;102559.06;5072027;28;20102;-50
2021/09/03 00:48:04;;;;;;;30.42;12.68;;;;;;;14.60;76.96;102556.41;5070197;28;20457;-48
2021/09/03 00:50:29;;;;;;;36.17;15.05;;;;;;;14.55;77.21;102558.03;5051021;28;20101;-47
2021/09/03 00:52:55;;;;;;;34.13;15.13;;;;;;;14.50;77.18;102550.06;5069294;28;20032;-52
2021/09/03 00:55:20;;;;;;;37.55;15.45;;;;;;;14.48;77.35;102548.22;5069090;28;20031;-47
2021/09/03 00:57:45;;;;;;;42.90;15.85;;;;;;;14.47;77.62;102549.97;5070840;28;20543;-47
2021/09/03 01:00:11;;;;;;;35.67;14.80;;;;;;;14.48;77.42;102545.59;5070016;28;20039;-49
2021/09/03 01:02:37;;;;;;;37.72;13.82;;;;;;;14.45;77.25;102541.19;5072244;28;20111;-49
2021/09/03 01:05:03;;;;;;;32.38;13.20;;;;;;;14.40;77.20;102547.16;5069958;28;20119;-49
2021/09/03 01:07:28;;;;;;;33.78;14.02;;;;;;;14.40;77.37;102545.41;5065112;28;20288;-50
2021/09/03 01:09:53;;;;;;;45.30;16.70;;;;;;;14.40;78.21;102542.78;5073297;28;20055;-54
2021/09/03 01:12:19;;;;;;;39.75;15.32;;;;;;;14.46;78.01;102547.28;5071694;28;20137;-53
2021/09/03 01:14:44;;;;;;;36.40;14.52;;;;;;;14.47;77.52;102535.97;5068639;28;20028;-50
2021/09/03 01:17:09;;;;;;;43.20;15.82;;;;;;;14.46;78.09;102540.31;5054717;28;20441;-50
2021/09/03 01:19:35;;;;;;;38.42;15.57;;;;;;;14.47;77.52;102534.22;5072138;28;20481;-48
2021/09/03 01:22:00;;;;;;;40.08;15.07;;;;;;;14.50;78.00;102534.31;5066344;28;20027;-49
2021/09/03 01:24:26;;;;;;;31.48;13.18;;;;;;;14.48;77.35;102530.75;5072394;28;20036;-49
2021/09/03 01:26:51;;;;;;;45.97;15.23;;;;;;;14.47;78.16;102522.84;5067049;28;20084;-47
2021/09/03 01:29:16;;;;;;;33.25;14.27;;;;;;;14.51;77.71;102528.22;5071055;28;20349;-48
2021/09/03 01:31:42;;;;;;;33.40;14.55;;;;;;;14.52;77.44;102521.19;5066893;28;21329;-48
2021/09/03 01:34:07;;;;;;;41.17;15.45;;;;;;;14.56;77.89;102520.44;5066426;28;20044;-49
2021/09/03 01:36:33;;;;;;;40.95;15.50;;;;;;;14.65;77.75;102528.50;5050332;28;20028;-48
2021/09/03 01:38:59;;;;;;;38.47;14.55;;;;;;;14.74;77.05;102515.59;5068561;28;20024;-51
2021/09/03 01:41:25;;;;;;;39.30;14.35;;;;;;;14.72;76.84;102513.78;5070566;28;20024;-51
2021/09/03 01:43:51;;;;;;;37.47;14.80;;;;;;;14.69;76.87;102522.50;5050166;28;20363;-47
2021/09/03 01:46:17;;;;;;;39.92;15.65;;;;;;;14.66;77.26;102518.91;5068262;28;20349;-49
2021/09/03 01:48:43;;;;;;;35.10;15.00;;;;;;;14.65;77.47;102509.25;5053832;28;20615;-48
2021/09/03 01:51:08;;;;;;;36.95;14.13;;;;;;;14.67;76.73;102500.56;5067737;28;20024;-49
2021/09/03 01:53:34;;;;;;;34.63;15.10;;;;;;;14.71;77.03;102507.66;5069793;28;20040;-47
2021/09/03 01:55:59;;;;;;;37.67;14.75;;;;;;;14.61;77.30;102501.31;5069629;28;20457;-48
2021/09/03 01:58:24;;;;;;;39.63;14.27;;;;;;;14.61;77.38;102498.69;5072920;28;20028;-47
2021/09/03 02:00:50;;;;;;;37.10;14.65;;;;;;;14.54;76.96;102496.78;5067385;28;20497;-48
2021/09/03 02:03:15;;;;;;;37.20;14.40;;;;;;;14.51;77.26;102501.09;5070820;28;20039;-51
2021/09/03 02:05:44;;;;;;;41.60;14.88;;;;;;;14.50;76.97;102492.31;5071807;28;20012;-47
2021/09/03 02:08:09;;;;;;;34.63;14.02;;;;;;;14.48;77.08;102488.75;5061795;28;20096;-50
2021/09/03 02:10:34;;;;;;;33.45;14.00;;;;;;;14.47;77.30;102491.34;5067740;28;20358;-48
2021/09/03 02:13:00;;;;;;;35.42;14.52;;;;;;;14.54;77.33;102496.78;5069593;28;20058;-49
2021/09/03 02:15:25;;;;;;;37.80;15.32;;;;;;;14.52;77.25;102495.84;5069610;28;20111;-49
2021/09/03 02:17:51;;;;;;;36.72;14.48;;;;;;;14.49;77.05;102493.16;5053201;28;20028;-51
2021/09/03 02:20:16;;;;;;;35.20;13.52;;;;;;;14.45;77.14;102483.47;5064918;28;20008;-47
2021/09/03 02:22:41;;;;;;;42.78;16.20;;;;;;;14.40;77.48;102490.31;5072050;28;20286;-49
2021/09/03 02:25:07;;;;;;;35.50;13.95;;;;;;;14.39;77.41;102482.44;5067332;28;20012;-51
2021/09/03 02:27:32;;;;;;;43.30;16.00;;;;;;;14.34;77.62;102484.00;5051904;28;20040;-50
2021/09/03 02:29:58;;;;;;;38.95;15.65;;;;;;;14.33;77.86;102485.78;5071475;28;20016;-49
2021/09/03 02:32:23;;;;;;;46.13;16.30;;;;;;;14.35;78.18;102481.41;5067534;28;20161;-47
2021/09/03 02:34:49;;;;;;;38.53;15.45;;;;;;;14.35;77.48;102480.53;5068621;28;20052;-48
2021/09/03 02:37:14;;;;;;;37.53;15.15;;;;;;;14.41;77.70;102480.72;5061627;28;20031;-48
2021/09/03 02:39:40;;;;;;;48.30;17.13;;;;;;;14.40;77.90;102481.56;5071764;28;20425;-50
2021/09/03 02:42:05;;;;;;;44.35;16.40;;;;;;;14.39;77.80;102478.06;5066258;28;20032;-50
2021/09/03 02:44:31;;;;;;;45.17;16.38;;;;;;;14.39;77.96;102474.56;5070264;28;20027;-49
2021/09/03 02:46:56;;;;;;;40.35;16.10;;;;;;;14.39;78.31;102474.56;5065659;28;20129;-52
2021/09/03 02:49:21;;;;;;;42.13;15.38;;;;;;;14.50;77.74;102465.19;5067758;28;20538;-47
2021/09/03 02:51:47;;;;;;;37.90;14.68;;;;;;;14.48;77.46;102465.16;5046081;28;20057;-49
2021/09/03 02:54:12;;;;;;;46.58;16.88;;;;;;;14.47;77.85;102455.50;5068263;28;20560;-49
2021/09/03 02:56:38;;;;;;;51.80;17.17;;;;;;;14.52;77.90;102466.09;5066398;28;20051;-50
2021/09/03 02:59:03;;;;;;;47.28;16.98;;;;;;;14.54;78.15;102461.78;5074931;28;20028;-49
2021/09/03 03:01:29;;;;;;;42.78;17.13;;;;;;;14.56;78.07;102462.69;5061922;28;20999;-50
2021/09/03 03:03:54;;;;;;;42.42;16.77;;;;;;;14.54;77.63;102449.53;5065729;28;20344;-49
2021/09/03 03:06:19;;;;;;;43.08;15.55;;;;;;;14.57;77.27;102449.63;5064589;28;20073;-52
2021/09/03 03:08:45;;;;;;;44.70;16.45;;;;;;;14.53;77.71;102442.50;5047582;28;20206;-49
2021/09/03 03:11:10;;;;;;;40.92;15.68;;;;;;;14.51;77.40;102445.97;5071161;28;20040;-51
2021/09/03 03:13:35;;;;;;;43.88;16.77;;;;;;;14.46;77.82;102440.59;5066332;28;20024;-48
2021/09/03 03:16:01;;;;;;;40.58;15.85;;;;;;;14.53;77.70;102434.63;5067101;28;20032;-52
2021/09/03 03:18:26;;;;;;;42.90;16.58;;;;;;;14.51;77.56;102433.75;5067347;28;20077;-53
2021/09/03 03:20:52;;;;;;;44.72;16.60;;;;;;;14.51;77.49;102431.13;5070162;28;20032;-47
2021/09/03 03:23:17;;;;;;;41.28;15.77;;;;;;;14.49;77.36;102427.56;5069017;28;20032;-47
2021/09/03 03:25:44;;;;;;;45.47;16.40;;;;;;;14.47;77.46;102431.00;5050404;28;20106;-50
2021/09/03 03:28:10;;;;;;;43.67;14.90;;;;;;;14.56;77.41;102433.84;5069517;28;20032;-47
2021/09/03 03:30:35;;;;;;;34.70;15.32;;;;;;;14.51;77.60;102431.13;5051651;28;20516;-48
2021/09/03 03:33:01;;;;;;;45.22;16.63;;;;;;;14.55;77.26;102432.06;5068189;28;20512;-47
2021/09/03 03:35:27;;;;;;;43.88;16.75;;;;;;;14.49;77.60;102427.56;5063831;28;20434;-48
2021/09/03 03:37:52;;;;;;;42.65;16.27;;;;;;;14.41;78.10;102423.88;5067608;28;20024;-47
2021/09/03 03:40:18;;;;;;;45.88;16.33;;;;;;;14.60;77.05;102420.81;5068917;28;20027;-49
2021/09/03 03:42:44;;;;;;;40.67;15.50;;;;;;;14.56;77.00;102421.59;5066483;28;20611;-51
2021/09/03 03:45:10;;;;;;;40.15;16.05;;;;;;;14.52;76.95;102414.50;5064509;28;20036;-48
2021/09/03 03:47:36;;;;;;;43.28;16.38;;;;;;;14.48;77.10;102417.91;5063838;28;20013;-49
2021/09/03 03:50:02;;;;;;;42.92;16.55;;;;;;;14.53;77.02;102412.75;5069820;28;20411;-49
2021/09/03 03:52:27;;;;;;;42.60;16.15;;;;;;;14.60;76.88;102406.78;5066448;28;20040;-49
2021/09/03 03:54:52;;;;;;;44.63;17.10;;;;;;;14.49;77.38;102411.81;5047530;28;20024;-47
2021/09/03 03:57:18;;;;;;;49.05;17.00;;;;;;;14.45;77.69;102410.00;5066438;28;20132;-48
2021/09/03 03:59:44;;;;;;;42.38;17.35;;;;;;;14.51;77.75;102409.22;5064855;28;20036;-47
2021/09/03 04:02:09;;;;;;;44.65;17.15;;;;;;;14.66;77.13;102406.91;5063505;28;21094;-49
2021/09/03 04:04:34;;;;;;;45.90;16.88;;;;;;;14.60;77.05;102405.06;5073267;28;20330;-52
2021/09/03 04:07:00;;;;;;;46.60;16.85;;;;;;;14.54;77.47;102399.69;5071792;28;20110;-51
2021/09/03 04:09:25;;;;;;;56.22;18.30;;;;;;;14.37;78.50;102406.28;5065874;28;20027;-48
2021/09/03 04:11:51;;;;;;;48.17;18.25;;;;;;;14.53;78.17;102405.78;5071054;28;20077;-50
2021/09/03 04:14:18;;;;;;;43.40;17.50;;;;;;;14.56;77.99;102400.59;5071573;28;20119;-47
2021/09/03 04:16:43;;;;;;;51.30;18.60;;;;;;;14.52;78.21;102408.34;5072674;28;20032;-50
2021/09/03 04:19:09;;;;;;;51.47;17.60;;;;;;;14.49;77.99;102403.06;5069938;28;20044;-53
2021/09/03 04:21:34;;;;;;;49.22;18.50;;;;;;;14.46;78.27;102411.72;5074667;28;20016;-47
2021/09/03 04:23:59;;;;;;;51.00;18.08;;;;;;;14.49;78.47;102406.56;5069838;28;20047;-49
2021/09/03 04:26:25;;;;;;;55.85;18.85;;;;;;;14.48;78.46;102409.16;5066074;28;20036;-47
2021/09/03 04:28:50;;;;;;;53.55;18.85;;;;;;;14.45;78.22;102403.84;5070965;28;20020;-48
2021/09/03 04:31:15;;;;;;;55.95;19.52;;;;;;;14.45;78.74;102403.84;5071614;28;21013;-50
2021/09/03 04:33:41;;;;;;;52.83;18.70;;;;;;;14.42;78.80;102401.16;5063445;28;20051;-48
2021/09/03 04:36:06;;;;;;;50.90;18.27;;;;;;;14.47;78.64;102408.25;5069630;28;21076;-48
2021/09/03 04:38:31;;;;;;;50.40;18.30;;;;;;;14.47;78.79;102407.38;5072512;28;20093;-49
2021/09/03 04:40:57;;;;;;;50.85;19.27;;;;;;;14.48;78.70;102404.78;5070415;28;20119;-48
2021/09/03 04:43:24;;;;;;;58.30;18.38;;;;;;;14.55;78.65;102405.81;5069809;28;20049;-49
2021/09/03 04:45:49;;;;;;;50.80;18.73;;;;;;;14.50;78.60;102403.09;5069929;28;20350;-50
2021/09/03 04:48:14;;;;;;;51.83;18.70;;;;;;;14.52;78.51;102397.84;5070474;28;20517;-51
2021/09/03 04:50:41;;;;;;;54.58;18.00;;;;;;;14.50;77.99;102399.59;5071658;28;20470;-48
2021/09/03 04:53:06;;;;;;;46.75;17.30;;;;;;;14.49;77.78;102400.44;5071715;28;20075;-48
2021/09/03 04:55:32;;;;;;;54.15;18.23;;;;;;;14.44;78.00;102392.47;5071855;28;20591;-47
2021/09/03 04:57:57;;;;;;;47.05;17.27;;;;;;;14.40;78.00;102392.34;5037980;28;20032;-50
2021/09/03 05:00:23;;;;;;;46.05;16.30;;;;;;;14.37;77.94;102397.50;5069989;28;20423;-51
2021/09/03 05:02:49;;;;;;;58.28;19.85;;;;;;;14.34;78.57;102394.78;5068139;28;20919;-50
2021/09/03 05:05:14;;;;;;;52.40;18.27;;;;;;;14.38;78.26;102392.34;5053330;28;20043;-51
2021/09/03 05:07:40;;;;;;;64.20;20.63;;;;;;;14.46;78.19;102402.97;5052529;28;20021;-49
2021/09/03 05:10:07;;;;;;;64.72;20.25;;;;;;;14.39;78.23;102395.84;5069881;28;20064;-47
2021/09/03 05:12:33;;;;;;;57.83;19.77;;;;;;;14.39;78.27;102401.97;5069395;28;20024;-49
2021/09/03 05:14:59;;;;;;;52.88;18.50;;;;;;;14.41;78.39;102395.00;5068187;28;20073;-49
2021/09/03 05:17:24;;;;;;;62.13;19.95;;;;;;;14.43;78.56;102398.56;5065598;28;20106;-48
2021/09/03 05:19:49;;;;;;;52.55;19.05;;;;;;;14.44;78.67;102394.19;5070804;28;20200;-50
2021/09/03 05:22:16;;;;;;;57.63;20.42;;;;;;;14.47;78.54;102391.63;5065875;28;20146;-48
2021/09/03 05:24:41;;;;;;;55.65;19.23;;;;;;;14.55;78.51;102390.06;5072046;28;20186;-48
2021/09/03 05:27:06;;;;;;;60.42;20.58;;;;;;;14.56;78.44;102395.34;5071060;28;20160;-48
2021/09/03 05:29:32;;;;;;;53.45;19.45;;;;;;;14.65;78.35;102391.13;5043635;28;20055;-51
2021/09/03 05:31:58;;;;;;;54.22;19.05;;;;;;;14.65;78.10;102389.38;5067914;28;20024;-49
2021/09/03 05:34:23;;;;;;;56.30;20.17;;;;;;;14.71;78.03;102392.16;5065662;28;20082;-48
2021/09/03 05:36:48;;;;;;;55.40;19.73;;;;;;;14.79;78.01;102408.06;5067819;28;20118;-49
2021/09/03 05:39:14;;;;;;;51.33;18.92;;;;;;;14.86;77.88;102407.34;5071216;28;20063;-48
2021/09/03 05:41:39;;;;;;;53.55;19.73;;;;;;;14.88;77.83;102400.38;5069500;28;20134;-47
2021/09/03 05:44:04;;;;;;;48.60;17.83;;;;;;;14.95;77.50;102407.50;5072418;28;20559;-48
2021/09/03 05:46:30;;;;;;;53.40;19.00;;;;;;;15.17;77.20;102411.44;5046688;28;20462;-50
2021/09/03 05:48:55;;;;;;;47.65;18.40;;;;;;;15.09;77.00;102406.03;5071230;28;20020;-49
2021/09/03 05:51:21;;;;;;;43.40;17.77;;;;;;;15.20;76.65;102398.34;5066668;28;20039;-48
2021/09/03 05:53:46;;;;;;;46.75;19.08;;;;;;;15.23;76.44;102401.94;5052396;28;20118;-49
2021/09/03 05:56:12;;;;;;;41.40;17.45;;;;;;;15.40;76.22;102408.38;5070969;28;20032;-50
2021/09/03 05:58:37;;;;;;;44.72;18.52;;;;;;;15.41;75.93;102404.91;5069509;28;20039;-49
2021/09/03 06:01:03;;;;;;;42.70;17.80;;;;;;;15.54;75.82;102403.41;5071822;28;20062;-51
2021/09/03 06:03:29;;;;;;;44.22;17.50;;;;;;;15.64;75.15;102397.44;5062473;28;20369;-48
2021/09/03 06:05:54;;;;;;;38.83;17.58;;;;;;;15.71;75.29;102411.56;5069076;28;20339;-48
2021/09/03 06:08:19;;;;;;;42.38;17.48;;;;;;;15.79;74.68;102407.34;5071467;28;20050;-48
2021/09/03 06:10:45;;;;;;;39.58;16.85;;;;;;;16.08;74.11;102395.53;5071323;28;20043;-49
2021/09/03 06:13:10;;;;;;;37.03;16.10;;;;;;;16.59;73.82;102392.75;5066457;28;20441;-51
2021/09/03 06:15:35;;;;;;;28.48;15.07;;;;;;;17.29;72.07;102390.91;5063888;28;20881;-50
2021/09/03 06:18:01;;;;;;;27.80;14.90;;;;;;;17.89;68.80;102391.44;5066712;28;20127;-48
2021/09/03 06:20:26;;;;;;;31.50;14.98;;;;;;;18.66;66.74;102384.03;5065545;28;20395;-51
2021/09/03 06:22:52;;;;;;;25.90;14.80;;;;;;;19.18;63.65;102389.47;5049200;28;20062;-47
2021/09/03 06:25:17;;;;;;;28.17;15.10;;;;;;;19.51;61.93;102393.97;5071614;28;20447;-49
2021/09/03 06:27:42;;;;;;;29.13;14.65;;;;;;;19.96;60.71;102395.69;5065575;28;20115;-51
2021/09/03 06:30:09;;;;;;;26.70;14.20;;;;;;;20.27;59.85;102390.34;5067527;28;20060;-47
2021/09/03 06:32:35;;;;;;;27.48;14.27;;;;;;;20.73;57.82;102392.88;5063550;28;20032;-48
2021/09/03 06:35:02;;;;;;;24.20;13.98;;;;;;;21.26;55.88;102395.25;5066165;28;20051;-48
2021/09/03 06:37:29;;;;;;;25.23;13.65;;;;;;;21.15;56.55;102399.75;5068196;28;20116;-48
2021/09/03 06:39:56;;;;;;;23.88;14.38;;;;;;;21.31;55.81;102385.50;5068649;28;20032;-47
2021/09/03 06:42:22;;;;;;;29.15;14.60;;;;;;;21.19;55.39;102385.56;5050959;28;20024;-48
2021/09/03 06:44:48;;;;;;;28.40;14.40;;;;;;;21.81;54.94;102389.50;5065677;28;20120;-50
2021/09/03 06:47:14;;;;;;;25.95;13.38;;;;;;;22.14;52.83;102383.88;5066380;28;20496;-52
2021/09/03 06:49:40;;;;;;;23.27;14.27;;;;;;;22.11;54.42;102393.69;5065200;28;20032;-48
2021/09/03 06:52:07;;;;;;;25.02;14.05;;;;;;;22.49;52.89;102379.97;5068177;28;20326;-46
2021/09/03 06:54:33;;;;;;;21.52;13.25;;;;;;;22.97;51.44;102389.13;5060431;28;20527;-47
2021/09/03 06:56:59;;;;;;;26.33;12.98;;;;;;;22.80;51.18;102389.38;5040650;28;20031;-46
2021/09/03 06:59:24;;;;;;;25.63;13.68;;;;;;;23.09;50.86;102388.94;5067798;28;20819;-51
2021/09/03 07:01:50;;;;;;;23.83;13.73;;;;;;;23.03;52.06;102387.25;5062296;28;20040;-47
2021/09/03 07:04:15;;;;;;;23.65;13.02;;;;;;;23.21;50.54;102387.88;5068026;28;20112;-47
2021/09/03 07:06:40;;;;;;;23.05;12.85;;;;;;;23.53;49.55;102374.13;5067228;28;20152;-46
2021/09/03 07:09:06;;;;;;;22.48;12.68;;;;;;;23.03;50.81;102373.97;5066290;28;20379;-47
2021/09/03 07:11:32;;;;;;;22.15;12.73;;;;;;;23.26;49.87;102380.72;5065791;28;20032;-50
2021/09/03 07:13:58;;;;;;;19.30;12.57;;;;;;;23.48;49.58;102375.97;5063323;28;20030;-47
2021/09/03 07:16:24;;;;;;;22.85;12.93;;;;;;;23.77;48.81;102371.91;5067524;28;20118;-47
2021/09/03 07:18:49;;;;;;;25.30;12.52;;;;;;;24.13;48.08;102372.13;5066185;28;20033;-47
2021/09/03 07:21:15;;;;;;;19.67;12.80;;;;;;;24.45;47.48;102375.09;5066550;28;20035;-48
2021/09/03 07:23:40;;;;;;;20.20;13.10;;;;;;;24.47;48.21;102377.69;5066869;28;20329;-49
2021/09/03 07:26:05;;;;;;;22.75;12.90;;;;;;;24.74;46.81;102373.59;5061383;28;20205;-51
2021/09/03 07:28:31;;;;;;;22.92;12.73;;;;;;;24.71;46.78;102381.63;5064864;28;20380;-46
2021/09/03 07:30:56;;;;;;;23.17;13.07;;;;;;;24.61;47.39;102371.19;5066805;28;20561;-47
2021/09/03 07:33:22;;;;;;;19.23;12.90;;;;;;;24.45;46.25;102377.75;5065089;28;20024;-47
2021/09/03 07:35:47;;;;;;;21.55;12.43;;;;;;;24.92;45.65;102376.75;5063164;28;20403;-50
2021/09/03 07:38:13;;;;;;;23.40;13.27;;;;;;;24.30;46.62;102374.50;5063570;28;20067;-47
2021/09/03 07:40:39;;;;;;;21.00;12.77;;;;;;;;;;5041621;28;20122;-49
2021/09/03 07:43:07;;;;;;;22.88;13.02;;;;;;;24.12;47.61;102371.25;5066824;28;20161;-47
2021/09/03 07:45:38;;;;;;;21.23;13.07;;;;;;;24.40;47.21;102368.06;5064938;28;20020;-50
2021/09/03 07:48:05;;;;;;;22.35;13.77;;;;;;;24.22;47.03;102367.53;5071138;28;20028;-46
2021/09/03 07:50:30;;;;;;;21.38;13.00;;;;;;;23.59;49.28;102368.69;5049810;28;20025;-47
2021/09/03 07:52:56;;;;;;;22.38;13.95;;;;;;;22.87;50.80;102371.56;5064492;28;20072;-45
2021/09/03 07:55:21;;;;;;;23.67;13.48;;;;;;;22.93;50.88;102363.47;5067545;28;20066;-46
2021/09/03 07:57:47;;;;;;;24.20;14.30;;;;;;;22.11;53.19;102364.47;5067833;28;20032;-48
2021/09/03 08:00:13;;;;;;;26.88;14.77;;;;;;;22.47;54.24;102365.81;5067584;28;20476;-47
2021/09/03 08:02:38;;;;;;;25.35;14.75;;;;;;;21.90;55.75;102368.16;5068199;28;20028;-47
2021/09/03 08:05:05;;;;;;;29.67;15.25;;;;;;;20.85;57.24;102371.63;5068099;28;20020;-47
2021/09/03 08:07:31;;;;;;;24.30;15.18;;;;;;;21.09;57.23;102353.78;5064569;28;20028;-47
2021/09/03 08:09:56;;;;;;;27.15;15.55;;;;;;;21.02;57.24;102358.25;5069826;28;20483;-48
2021/09/03 08:12:22;;;;;;;30.35;15.50;;;;;;;21.19;57.27;102359.06;5048502;28;20016;-47
2021/09/03 08:14:50;;;;;;;24.65;14.95;;;;;;;21.06;60.03;102358.22;5069237;28;20032;-49
2021/09/03 08:17:15;;;;;;;25.67;15.00;;;;;;;21.25;59.41;102364.31;5068746;28;20032;-47
2021/09/03 08:19:40;;;;;;;26.23;15.05;;;;;;;21.20;58.62;102357.28;5066361;28;20475;-46
2021/09/03 08:22:06;;;;;;;27.88;14.90;;;;;;;21.78;55.71;102363.88;5069983;28;20047;-46
2021/09/03 08:24:31;;;;;;;23.23;14.73;;;;;;;22.01;56.23;102361.03;5065394;28;20077;-48
2021/09/03 08:26:57;;;;;;;25.17;14.82;;;;;;;21.45;56.83;102356.22;5069066;28;20542;-52
2021/09/03 08:29:22;;;;;;;25.85;14.90;;;;;;;21.31;56.88;102358.97;5072262;28;20547;-49
2021/09/03 08:31:48;;;;;;;24.98;14.30;;;;;;;21.26;57.75;102360.78;5068536;28;20231;-47
2021/09/03 08:34:14;;;;;;;26.58;14.57;;;;;;;21.05;58.10;102360.88;5070174;28;20405;-52
2021/09/03 08:36:39;;;;;;;24.05;14.40;;;;;;;21.13;58.61;102355.53;5065587;28;20447;-48
2021/09/03 08:39:04;;;;;;;27.83;14.82;;;;;;;21.57;57.37;102360.53;5070392;28;20295;-52
2021/09/03 08:41:30;;;;;;;24.05;13.75;;;;;;;21.86;56.96;102350.53;5047942;28;20073;-48
2021/09/03 08:43:57;;;;;;;24.63;13.52;;;;;;;21.90;56.21;102359.31;5046812;28;20446;-49
2021/09/03 08:46:27;;;;;;;23.40;12.95;;;;;;;22.08;56.31;102356.53;5065734;28;20048;-48
2021/09/03 08:48:52;;;;;;;21.85;13.65;;;;;;;21.75;55.75;102366.56;5068583;28;20050;-46
2021/09/03 08:51:18;;;;;;;28.45;13.70;;;;;;;21.92;57.63;102358.44;5071189;28;20499;-49
2021/09/03 08:53:43;;;;;;;22.98;13.38;;;;;;;21.88;55.45;102363.78;5071203;28;20067;-48
2021/09/03 08:56:09;;;;;;;21.83;13.75;;;;;;;21.79;56.95;102354.13;5071298;28;20676;-49
2021/09/03 08:58:35;;;;;;;23.52;13.07;;;;;;;22.15;55.75;102358.22;5066173;28;20054;-47
2021/09/03 09:01:08;;;;;;;21.80;13.25;;;;;;;22.11;55.16;102359.16;5067096;28;20388;-51
2021/09/03 09:03:38;;;;;;;25.00;14.13;;;;;;;21.54;56.47;102360.53;5067684;28;20456;-50
2021/09/03 09:06:04;;;;;;;23.95;14.10;;;;;;;21.40;56.57;102361.56;5072408;28;20526;-51
2021/09/03 09:08:32;;;;;;;21.45;13.25;;;;;;;21.56;56.42;102357.00;5069579;28;20130;-50
2021/09/03 09:11:18;;;;;;;21.48;13.40;;;;;;;21.74;56.31;102356.84;5071181;28;20035;-50
2021/09/03 09:13:45;;;;;;;25.95;13.98;;;;;;;21.91;55.23;102369.94;5071838;28;20501;-48
2021/09/03 09:16:17;;;;;;;26.98;14.32;;;;;;;21.26;57.33;102363.44;5067375;28;20032;-52
2021/09/03 09:18:51;;;;;;;28.70;14.43;;;;;;;21.33;57.89;102365.16;5072327;28;20463;-48
2021/09/03 09:21:20;;;;;;;;;;;;;;;21.79;58.32;102355.00;5072150;28;20105;-50
2021/09/03 09:23:54;;;;;;;21.25;13.20;;;;;;;21.83;56.26;102363.84;5067909;28;19923;-50
2021/09/03 09:26:22;;;;;;;22.75;12.95;;;;;;;21.97;57.81;102366.38;5064594;28;20020;-48
2021/09/03 09:28:48;;;;;;;22.98;13.10;;;;;;;21.76;56.03;102370.09;5068407;28;20116;-46
2021/09/03 09:31:27;;;;;;;24.70;13.15;;;;;;;22.25;56.57;102365.19;5051312;28;20021;-49
2021/09/03 09:33:53;;;;;;;21.60;12.18;;;;;;;22.47;54.44;102368.47;5074100;28;20261;-51
2021/09/03 09:36:19;;;;;;;21.88;11.55;;;;;;;22.31;54.10;102370.44;5068725;28;20035;-46
2021/09/03 09:38:45;;;;;;;21.42;11.82;;;;;;;21.49;56.01;102371.19;5069623;28;20020;-49
2021/09/03 09:41:12;;;;;;;22.48;13.57;;;;;;;21.06;57.65;102363.53;5070081;28;20064;-47
2021/09/03 09:43:41;;;;;;;20.55;11.95;;;;;;;21.67;56.58;102368.41;5055222;28;21018;-49
2021/09/03 09:46:07;;;;;;;23.08;12.45;;;;;;;21.98;56.19;102368.13;5070808;28;20035;-47
2021/09/03 09:48:32;;;;;;;23.40;12.90;;;;;;;22.33;54.58;102360.66;5069808;28;20032;-46
2021/09/03 09:50:57;;;;;;;20.50;12.27;;;;;;;22.34;56.32;102353.56;5049097;28;20030;-50
2021/09/03 09:53:25;;;;;;;19.98;12.50;;;;;;;22.69;54.18;102359.31;5068834;28;20068;-47
2021/09/03 09:55:51;;;;;;;19.60;11.90;;;;;;;22.90;53.19;102361.72;5067701;28;20366;-51
2021/09/03 09:58:19;;;;;;;19.80;12.20;;;;;;;22.90;53.42;102358.19;5067380;28;20032;-48
2021/09/03 10:00:44;;;;;;;26.02;13.07;;;;;;;22.94;52.75;102354.56;5054709;28;20543;-48
2021/09/03 10:03:11;;;;;;;23.33;12.38;;;;;;;23.20;52.68;102355.06;5049405;28;20024;-48
2021/09/03 10:05:37;;;;;;;19.23;11.75;;;;;;;23.32;52.51;102346.03;5050941;28;20055;-49
2021/09/03 10:08:03;;;;;;;20.58;11.90;;;;;;;23.48;54.00;102349.34;5066658;28;20193;-45
2021/09/03 10:10:28;;;;;;;21.98;12.32;;;;;;;23.38;52.63;102348.59;5051599;28;20455;-45
2021/09/03 10:12:55;;;;;;;22.92;12.52;;;;;;;23.64;51.04;102341.06;5066952;28;20437;-47
2021/09/03 10:15:20;;;;;;;25.13;12.70;;;;;;;23.63;52.88;102338.44;5071918;28;20354;-48
2021/09/03 10:17:46;;;;;;;22.27;13.45;;;;;;;23.47;51.45;102337.84;5049141;28;20652;-46
2021/09/03 10:20:12;;;;;;;22.65;12.20;;;;;;;23.45;51.76;102335.16;5071392;28;21033;-48
2021/09/03 10:22:42;;;;;;;22.75;11.73;;;;;;;23.93;52.83;102323.69;5049826;28;20036;-49
2021/09/03 10:25:09;;;;;;;21.90;11.57;;;;;;;23.91;50.99;102330.84;5069540;28;20476;-46
2021/09/03 10:27:34;;;;;;;23.40;11.88;;;;;;;23.77;50.68;102326.66;5069842;28;20911;-50
2021/09/03 10:30:13;;;;;;;25.17;13.48;;;;;;;23.82;51.67;102331.88;5068101;28;20300;-50
2021/09/03 10:32:40;;;;;;;23.10;12.02;;;;;;;23.73;52.56;102329.38;5069504;28;20051;-47
2021/09/03 10:35:14;;;;;;;23.38;11.75;;;;;;;23.74;51.11;102323.13;5066991;28;20455;-48
2021/09/03 10:37:40;;;;;;;21.20;11.80;;;;;;;23.61;51.26;102326.91;5051273;28;20058;-47
2021/09/03 10:40:06;;;;;;;22.00;12.10;;;;;;;23.90;50.53;102321.97;5064786;28;20535;-50
2021/09/03 10:42:38;;;;;;;21.23;12.93;;;;;;;23.62;51.23;102324.25;5069911;28;20408;-48
2021/09/03 10:45:06;;;;;;;22.83;12.80;;;;;;;23.32;51.83;102327.38;5070210;28;20408;-49
2021/09/03 10:47:46;;;;;;;22.15;12.68;;;;;;;23.33;51.96;102326.50;5066997;28;20024;-49
2021/09/03 10:50:27;;;;;;;21.85;12.68;;;;;;;23.10;52.98;102310.91;5067693;28;20043;-48
2021/09/03 10:53:10;;;;;;;21.45;13.15;;;;;;;23.23;51.37;102301.81;5067894;28;20044;-49
2021/09/03 10:56:13;;;;;;;21.63;12.07;;;;;;;23.65;53.22;102300.25;5064798;28;20036;-47
2021/09/03 10:58:46;;;;;;;20.50;12.38;;;;;;;23.78;52.67;102295.56;5066540;28;20592;-48
2021/09/03 11:03:50;;;;;;;22.63;12.67;;;;;;;23.47;51.58;102292.59;5055476;28;20471;-49
2021/09/03 11:06:24;;;;;;;26.33;13.55;;;;;;;23.59;51.44;102287.03;5053914;28;20377;-46
2021/09/03 11:09:16;;;;;;;24.13;13.10;;;;;;;23.67;51.92;102284.22;5065527;28;20344;-48